Latest Weather Observations for Trangie

IDN60801

Issued at 9:32 am EDT Monday 15 February 2016 (issued every 30 minutes, with the page automatically refreshed every 10 minutes)

About weather observations | Map of weather stations | Latest weather observations for NSW | Other Formats
Station Details ID: 051049 Name: TRANGIE RESEARCH STATION AWS Lat: -31.99 Lon: 147.95 Height: 215.0 m
Data from the previous 72 hours. | See also: Recent months at Trangie
Date/Time
EDT
Temp
°C
App
Temp
°C
Dew
Point
Rel
Hum
%
Delta-T
°C
Wind Press
QNH
hPa
Press
MSL
hPa
Rain
since 9 am
mm
Dir
 
Spd
km/h
Gust
km/h
Spd
kts
Gust
kts
15/09:30am 26.3 23.5 6.9 29 10.3 S 11 17 6 9 1011.5 1010.3 0.0
15/09:00am 25.7 22.9 6.8 30 10.0 S 11 20 6 11 1011.4 1010.2 0.0
15/08:30am 23.8 20.9 6.6 33 9.0 SSE 11 17 6 9 1011.1 1009.9 0.0
15/08:00am 23.2 19.9 6.5 34 8.7 S 13 20 7 11 1010.8 1009.6 0.0
15/07:30am 22.2 19.4 6.8 37 8.0 S 11 17 6 9 1010.5 1009.3 0.0
15/07:00am 20.8 17.9 6.7 40 7.2 SSW 11 15 6 8 1010.5 1009.3 0.0
15/06:30am 21.0 18.1 6.5 39 7.4 SSW 11 13 6 7 1010.2 1009.0 0.0
15/06:00am 21.8 18.9 6.5 37 7.9 SSW 11 15 6 8 1009.8 1008.6 0.0
15/05:30am 22.2 19.2 6.0 35 8.3 SSW 11 15 6 8 1009.6 1008.4 0.0
15/05:00am 22.4 19.7 5.8 34 8.5 S 9 13 5 7 1009.5 1008.3 0.0
15/04:30am 23.3 19.9 5.7 32 9.0 S 13 17 7 9 1009.2 1008.0 0.0
15/04:00am 23.8 20.0 5.7 31 9.3 S 15 20 8 11 1009.3 1008.1 0.0
15/03:30am 24.5 20.6 5.3 29 9.8 SSW 15 24 8 13 1009.3 1008.1 0.0
15/03:00am 25.0 20.3 5.2 28 10.1 SSW 19 24 10 13 1009.5 1008.3 0.0
15/02:30am 25.3 21.8 5.5 28 10.2 SSW 13 19 7 10 1009.6 1008.4 0.0
15/02:00am 25.7 21.9 5.8 28 10.3 SSW 15 19 8 10 1009.8 1008.6 0.0
15/01:30am 26.9 23.2 6.3 27 10.9 S 15 20 8 11 1009.8 1008.6 0.0
15/01:00am 27.1 25.1 8.5 31 10.2 SSW 9 15 5 8 1010.0 1008.8 0.0
15/12:30am 28.1 25.3 8.4 29 10.8 S 13 19 7 10 1009.9 1008.7 0.0
15/12:00am 28.0 26.0 10.2 33 10.1 SSW 11 15 6 8 1009.7 1008.5 0.0
 
Date/Time
EDT
Temp
°C
App
Temp
°C
Dew
Point
Rel
Hum
%
Delta-T
°C
Wind Press
QNH
hPa
Press
MSL
hPa
Rain
since 9 am
mm
Dir
 
Spd
km/h
Gust
km/h
Spd
kts
Gust
kts
14/11:30pm 28.9 26.6 10.6 32 10.5 SSW 13 19 7 10 1009.6 1008.4 0.0
14/11:00pm 29.4 27.5 10.5 31 10.9 S 11 17 6 9 1009.5 1008.3 0.0
14/10:30pm 30.1 27.7 10.1 29 11.4 SSW 13 17 7 9 1009.2 1008.0 0.0
14/10:00pm 31.8 28.6 9.9 26 12.6 SSW 17 20 9 11 1009.0 1007.8 0.0
14/09:30pm 31.9 29.1 6.9 21 13.7 SSW 11 17 6 9 1008.5 1007.2 0.0
14/09:00pm 32.6 30.5 6.7 20 14.2 S 7 9 4 5 1008.0 1006.8 0.0
14/08:30pm 33.3 31.0 7.3 20 14.4 S 9 11 5 6 1007.5 1006.3 0.0
14/08:00pm 34.5 32.8 7.5 19 15.2 SSW 6 7 3 4 1007.1 1005.9 0.0
14/07:30pm 36.6 33.6 5.8 15 17.0 SW 11 13 6 7 1006.8 1005.6 0.0
14/07:00pm 37.2 34.6 6.3 15 17.3 SSW 9 15 5 8 1006.5 1005.3 0.0
14/06:30pm 38.1 35.8 4.9 13 18.2 S 6 9 3 5 1006.4 1005.2 0.0
14/06:00pm 39.8 35.5 5.1 12 19.3 WSW 17 24 9 13 1006.4 1005.2 0.0
14/05:30pm 40.2 37.1 5.4 12 19.4 WSW 11 19 6 10 1006.4 1005.2 0.0
14/05:00pm 40.2 36.3 5.4 12 19.4 WSW 15 28 8 15 1006.6 1005.4 0.0
14/04:30pm 40.7 37.6 5.7 12 19.6 SSW 11 20 6 11 1006.8 1005.6 0.0
14/04:00pm 40.3 36.8 5.4 12 19.5 W 13 24 7 13 1007.2 1006.0 0.0
14/03:30pm 39.4 35.4 4.7 12 19.1 WSW 15 26 8 14 1007.5 1006.3 0.0
14/03:00pm 39.5 36.5 6.0 13 18.8 SSW 11 26 6 14 1008.0 1006.8 0.0
14/02:30pm 39.1 36.2 6.7 14 18.3 NW 11 19 6 10 1008.5 1007.2 0.0
14/02:00pm 38.5 35.4 7.3 15 17.8 WNW 13 35 7 19 1008.8 1007.6 0.0
14/01:30pm 38.1 34.6 8.8 17 17.0 WNW 17 26 9 14 1009.1 1007.9 0.0
14/01:00pm 37.6 34.0 8.4 17 16.8 WNW 17 30 9 16 1009.5 1008.3 0.0
14/12:30pm 37.0 33.3 7.9 17 16.6 WNW 17 26 9 14 1010.0 1008.8 0.0
14/12:00pm 35.6 32.6 9.2 20 15.3 WNW 15 28 8 15 1010.5 1009.3 0.0
14/11:30am 35.1 32.4 10.2 22 14.6 WNW 15 20 8 11 1010.9 1009.7 0.0
14/11:00am 33.1 30.8 10.4 25 13.2 NNW 13 19 7 10 1011.2 1010.0 0.0
14/10:30am 31.6 29.6 11.4 29 11.9 NNW 13 19 7 10 1011.2 1010.0 0.0
14/10:00am 30.2 27.9 11.7 32 10.9 N 15 20 8 11 1011.2 1010.0 0.0
14/09:30am 28.6 26.8 12.1 36 9.7 N 13 17 7 9 1011.5 1010.3 0.0
14/09:00am 27.2 25.1 11.3 37 9.2 NNE 13 17 7 9 1011.4 1010.2 0.0
14/08:30am 25.8 25.5 12.6 44 7.7 E 6 7 3 4 1011.4 1010.2 0.0
14/08:00am 23.5 23.2 13.4 53 5.9 ESE 7 11 4 6 1011.2 1010.0 0.0
14/07:30am 19.2 18.9 12.7 66 3.7 ESE 6 7 3 4 1010.9 1009.7 0.0
14/07:00am 17.4 16.8 11.7 69 3.1 ESE 6 7 3 4 1010.4 1009.2 0.0
14/06:30am 17.5 16.8 11.3 67 3.4 E 6 9 3 5 1010.0 1008.8 0.0
14/06:00am 17.8 16.8 11.1 65 3.7 ESE 7 9 4 5 1009.6 1008.4 0.0
14/05:30am 18.5 18.9 11.1 62 4.1 CALM 0 0 0 0 1009.2 1008.0 0.0
14/05:00am 18.8 18.0 11.1 61 4.2 ESE 6 6 3 3 1009.0 1007.8 0.0
14/04:30am 18.6 18.9 10.9 61 4.2 CALM 0 0 0 0 1008.7 1007.4 0.0
14/04:00am 19.9 19.5 11.1 57 4.9 ENE 4 7 2 4 1008.7 1007.4 0.0
14/03:30am 20.0 20.2 10.7 55 5.1 CALM 0 0 0 0 1008.7 1007.4 0.0
14/03:00am 20.3 20.5 10.7 54 5.3 CALM 0 0 0 0 1008.8 1007.6 0.0
14/02:30am 22.4 21.5 10.5 47 6.6 NNE 6 7 3 4 1009.0 1007.8 0.0
14/02:00am 23.1 22.1 10.2 44 7.2 NNE 6 7 3 4 1009.1 1007.9 0.0
14/01:30am 23.6 22.5 9.9 42 7.6 NNE 6 7 3 4 1009.3 1008.1 0.0
14/01:00am 24.4 23.2 9.6 39 8.2 NE 6 7 3 4 1009.4 1008.2 0.0
14/12:30am 26.0 24.6 9.4 35 9.2 NE 7 11 4 6 1009.4 1008.2 0.0
14/12:00am 25.9 24.2 9.7 36 9.0 NE 9 11 5 6 1009.6 1008.4 0.0
 
Date/Time
EDT
Temp
°C
App
Temp
°C
Dew
Point
Rel
Hum
%
Delta-T
°C
Wind Press
QNH
hPa
Press
MSL
hPa
Rain
since 9 am
mm
Dir
 
Spd
km/h
Gust
km/h
Spd
kts
Gust
kts
13/11:30pm 25.9 24.5 9.7 36 9.0 NE 7 11 4 6 1009.8 1008.6 0.0
13/11:00pm 26.9 25.7 10.2 35 9.4 NE 7 11 4 6 1009.9 1008.7 0.0
13/10:30pm 26.9 25.3 10.2 35 9.4 NE 9 11 5 6 1010.0 1008.8 0.0
13/10:00pm 27.1 25.9 10.3 35 9.5 NE 7 9 4 5 1010.0 1008.8 0.0
13/09:30pm 27.7 26.4 10.0 33 10.0 NE 7 9 4 5 1009.9 1008.7 0.0
13/09:00pm 28.3 27.4 10.5 33 10.2 ENE 6 9 3 5 1009.7 1008.5 0.0
13/08:30pm 28.9 28.7 9.1 29 11.1 CALM 0 0 0 0 1009.6 1008.4 0.0
13/08:00pm 31.4 31.0 8.4 24 12.9 CALM 0 0 0 0 1009.4 1008.2 0.0
13/07:30pm 33.9 32.6 7.8 20 14.6 N 4 6 2 3 1009.1 1007.9 0.0
13/07:00pm 36.1 34.7 8.8 19 15.7 W 6 13 3 7 1009.0 1007.8 0.0
13/06:30pm 36.2 34.1 8.1 18 16.0 WNW 9 19 5 10 1008.9 1007.7 0.0
13/06:00pm 36.7 34.5 7.7 17 16.5 WSW 9 17 5 9 1009.0 1007.8 0.0
13/05:30pm 37.3 34.8 8.2 17 16.7 NW 11 20 6 11 1009.1 1007.9 0.0
13/05:00pm 37.4 35.8 8.2 17 16.8 SW 6 11 3 6 1009.4 1008.2 0.0
13/04:30pm 36.4 35.3 8.3 18 16.1 NE 4 13 2 7 1009.8 1008.6 0.0
13/04:00pm 35.8 34.3 8.6 19 15.6 NW 6 15 3 8 1010.2 1009.0 0.0
13/03:30pm 36.7 35.3 10.8 21 15.4 SW 9 17 5 9 1010.5 1009.3 0.0
13/03:00pm 35.3 33.9 9.7 21 14.9 NNW 7 15 4 8 1010.9 1009.7 0.0
13/02:30pm 35.6 35.1 10.6 22 14.8 NNE 4 13 2 7 1011.3 1010.1 0.0
13/02:00pm 35.9 34.7 11.5 23 14.6 N 9 17 5 9 1011.8 1010.6 0.0
13/01:30pm 34.6 33.0 11.7 25 13.7 W 11 22 6 12 1012.3 1011.1 0.0
13/01:00pm 34.0 31.9 12.4 27 13.0 NNW 15 20 8 11 1012.7 1011.5 0.0
13/12:30pm 33.4 31.3 12.4 28 12.6 NNW 15 24 8 13 1013.1 1012.0 0.0
13/12:00pm 32.9 31.4 13.0 30 12.0 NNE 13 20 7 11 1013.6 1012.4 0.0
13/11:30am 31.9 29.8 13.6 32 11.1 NNW 17 24 9 13 1013.9 1012.7 0.0
13/11:00am 30.3 28.6 13.6 36 10.1 N 15 22 8 12 1014.1 1012.9 0.0
13/10:30am 30.0 28.6 14.5 38 9.5 N 15 26 8 14 1014.2 1013.0 0.0
13/10:00am 28.2 26.1 13.7 41 8.7 N 17 26 9 14 1014.3 1013.1 0.0
13/09:30am 26.9 24.7 14.3 46 7.6 N 19 26 10 14 1014.4 1013.2 0.0
13/09:00am 25.8 24.5 14.9 51 6.6 NNE 15 20 8 11 1014.4 1013.2 -
13/08:30am 24.5 24.8 16.0 59 5.2 NE 9 17 5 9 1014.3 1013.1 -
13/08:00am 23.0 23.6 16.8 68 3.8 E 9 15 5 8 1014.1 1012.9 -
13/07:30am 20.6 21.7 17.0 80 2.2 E 7 11 4 6 1013.8 1012.6 -
13/07:00am 19.6 20.0 16.4 82 1.9 E 9 13 5 7 1013.5 1012.3 -
13/06:30am 19.7 20.1 16.2 80 2.1 E 9 13 5 7 1013.0 1011.9 -
13/06:00am 20.3 21.0 16.1 77 2.5 E 7 11 4 6 1012.7 1011.5 -
13/05:30am 20.7 21.0 15.9 74 2.9 E 9 13 5 7 1012.5 1011.3 -
13/05:00am 21.2 21.1 16.0 72 3.2 E 11 17 6 9 1012.4 1011.2 -
13/04:30am 21.5 21.3 15.8 70 3.4 E 11 17 6 9 1012.2 1011.0 -
13/04:00am 21.0 21.0 15.1 69 3.5 E 9 15 5 8 1012.2 1011.0 -
13/03:30am 21.5 21.5 15.1 67 3.8 E 9 13 5 7 1012.3 1011.1 -
13/03:00am 20.4 20.4 14.1 67 3.7 ESE 7 13 4 7 1012.4 1011.2 0.0
13/02:30am 20.9 20.9 14.1 65 4.0 ESE 7 9 4 5 1012.4 1011.2 -
13/02:00am 20.8 21.0 13.0 61 4.5 ESE 4 7 2 4 1012.3 1011.1 -
13/01:30am 23.3 22.6 13.2 53 5.9 ENE 9 13 5 7 1012.4 1011.2 -
13/01:00am 23.9 23.0 12.5 49 6.6 ENE 9 13 5 7 1012.4 1011.2 -
13/12:30am 24.6 23.6 12.2 46 7.2 ENE 9 15 5 8 1012.4 1011.2 -
13/12:00am 24.9 23.5 12.2 45 7.3 ENE 11 15 6 8 1012.4 1011.2 -
 
Date/Time
EDT
Temp
°C
App
Temp
°C
Dew
Point
Rel
Hum
%
Delta-T
°C
Wind Press
QNH
hPa
Press
MSL
hPa
Rain
since 9 am
mm
Dir
 
Spd
km/h
Gust
km/h
Spd
kts
Gust
kts
12/11:30pm 23.5 22.8 11.9 48 6.6 ENE 7 9 4 5 1012.3 1011.1 -
12/11:00pm 24.1 23.6 12.1 47 6.9 ENE 6 9 3 5 1012.5 1011.3 -
12/10:30pm 25.4 25.0 12.3 44 7.6 NE 6 9 3 5 1012.5 1011.3 -
12/10:00pm 26.0 25.7 12.8 44 7.7 ENE 6 9 3 5 1012.6 1011.4 -
12/09:30pm 26.1 25.7 12.5 42 7.9 E 6 7 3 4 1012.5 1011.3 -
12/09:00pm 27.4 27.5 12.6 40 8.7 ENE 4 7 2 4 1012.3 1011.1 0.0
12/08:30pm 28.7 28.2 12.2 36 9.7 E 6 7 3 4 1012.0 1010.8 -
12/08:00pm 30.7 30.0 12.1 32 11.0 E 7 11 4 6 1011.8 1010.6 -
12/07:30pm 32.5 30.9 11.6 28 12.4 E 11 17 6 9 1011.5 1010.3 -
12/07:00pm 33.9 33.2 9.9 23 13.9 NNE 4 9 2 5 1011.2 1010.0 -
12/06:30pm 33.8 33.3 12.2 27 13.0 NNE 6 9 3 5 1011.2 1010.0 -
12/06:00pm 33.7 32.1 10.3 24 13.6 NNE 9 13 5 7 1011.1 1009.9 -
12/05:30pm 35.1 33.3 9.5 21 14.8 NE 9 17 5 9 1011.0 1009.8 -
12/05:00pm 33.7 32.1 10.3 24 13.6 ENE 9 13 5 7 1011.2 1010.0 -
12/04:30pm 34.9 33.8 10.0 22 14.5 NNW 6 11 3 6 1011.3 1010.1 -
12/04:00pm 33.9 34.1 10.5 24 13.7 CALM 0 6 0 3 1011.6 1010.4 -
12/03:30pm 35.5 33.6 11.8 24 14.2 W 13 20 7 11 1012.0 1010.8 -
12/03:00pm 35.4 34.0 13.5 26 13.5 NW 13 24 7 13 1012.5 1011.3 0.2
12/02:30pm 34.9 34.2 13.1 27 13.3 NNW 9 20 5 11 1012.8 1011.7 -
12/02:00pm 34.2 34.0 13.1 28 12.9 NE 6 15 3 8 1013.3 1012.1 -
12/01:30pm - - - - - NNW 4 9 2 5 - - -
12/01:00pm 33.4 33.0 14.0 31 11.9 WSW 9 17 5 9 1014.0 1012.8 0.2
12/12:30pm 32.4 31.1 13.6 32 11.5 NNW 13 20 7 11 1014.5 1013.3 0.2
12/12:00pm 32.1 31.5 15.6 37 10.3 NNW 13 19 7 10 1014.9 1013.7 0.2
12/11:30am 31.1 30.3 15.1 38 9.9 NNE 13 20 7 11 1015.1 1013.9 0.2
12/11:00am 30.1 29.4 15.4 41 9.1 NNE 13 20 7 11 1015.1 1013.9 0.2
12/10:30am 29.3 28.6 16.5 46 8.1 NNE 15 24 8 13 1015.2 1014.0 0.2
12/10:00am 27.8 27.4 16.1 49 7.3 NE 13 24 7 13 1015.3 1014.1 0.2

Other Formats:

Comma delimited format used in spreadsheet applications
http://www.bom.gov.au/fwo/IDN60801/IDN60801.95710.axf

JavaScript Object Notation format (JSON) in row-major order
http://www.bom.gov.au/fwo/IDN60801/IDN60801.95710.json